Time;durP1;ratioP1;P1;durP2;ratioP2;P2;SDS_P1;SDS_P2;PMS_P1;PMS_P2;Temp;Humidity;BMP_temperature;BMP_pressure;BME280_temperature;BME280_humidity;BME280_pressure;Samples;Min_cycle;Max_cycle;Signal;HPM_P1;HPM_P2
2022/11/01 00:01:16;;;;;;;166.38;80.43;;;9.30;99.90;;;;;;5042818;28;20084;-68
2022/11/01 00:03:42;;;;;;;146.43;76.97;;;9.30;99.90;;;;;;5057678;28;20474;-68
2022/11/01 00:06:08;;;;;;;160.57;78.30;;;9.30;99.90;;;;;;5057826;28;20405;-68
2022/11/01 00:08:34;;;;;;;142.60;74.03;;;9.30;99.90;;;;;;5039888;28;20037;-68
2022/11/01 00:11:02;;;;;;;134.60;70.05;;;9.30;99.90;;;;;;5057444;28;20029;-68
2022/11/01 00:13:28;;;;;;;137.48;67.65;;;9.30;99.90;;;;;;5052415;28;20391;-68
2022/11/01 00:15:54;;;;;;;127.57;66.75;;;9.20;99.90;;;;;;5057530;28;20032;-68
2022/11/01 00:18:19;;;;;;;129.40;64.35;;;9.30;99.90;;;;;;5057438;28;20497;-68
2022/11/01 00:20:45;;;;;;;123.07;63.70;;;9.20;99.90;;;;;;5057487;28;20376;-68
2022/11/01 00:23:11;;;;;;;146.77;71.95;;;9.20;99.90;;;;;;5057337;28;20083;-68
2022/11/01 00:25:37;;;;;;;138.77;70.13;;;9.20;99.90;;;;;;5057246;28;20538;-68
2022/11/01 00:28:03;;;;;;;148.30;72.25;;;9.30;99.90;;;;;;5057306;28;20025;-68
2022/11/01 00:30:29;;;;;;;135.60;71.05;;;9.40;99.90;;;;;;5057134;28;20060;-68
2022/11/01 00:32:58;;;;;;;137.27;70.68;;;9.60;99.90;;;;;;5057219;28;20025;-68
2022/11/01 00:35:24;;;;;;;129.55;64.00;;;9.50;99.90;;;;;;5057176;28;20047;-68
2022/11/01 00:37:50;;;;;;;114.95;55.90;;;9.40;99.90;;;;;;5051212;28;20110;-68
2022/11/01 00:40:15;;;;;;;107.93;55.92;;;9.40;99.90;;;;;;5037423;28;20104;-68
2022/11/01 00:42:41;;;;;;;113.35;58.60;;;9.40;99.90;;;;;;5037088;28;20025;-68
2022/11/01 00:45:07;;;;;;;114.32;55.50;;;9.40;99.90;;;;;;5037137;28;20060;-68
2022/11/01 00:47:33;;;;;;;102.68;55.33;;;9.40;99.90;;;;;;5036861;28;20021;-68
2022/11/01 00:49:59;;;;;;;115.32;58.13;;;9.30;99.90;;;;;;5036992;28;20064;-68
2022/11/01 00:52:25;;;;;;;116.97;61.22;;;9.30;99.90;;;;;;5019020;28;20040;-68
2022/11/01 00:54:51;;;;;;;120.40;57.53;;;9.20;99.90;;;;;;5036782;28;20033;-68
2022/11/01 00:57:17;;;;;;;108.72;57.53;;;9.10;99.90;;;;;;5036799;28;20390;-68
2022/11/01 00:59:43;;;;;;;119.93;60.92;;;9.10;99.90;;;;;;5036729;28;20120;-68
2022/11/01 01:02:08;;;;;;;123.40;62.83;;;9.00;99.90;;;;;;5036252;28;20041;-68
2022/11/01 01:04:40;;;;;;;128.88;64.20;;;9.10;99.90;;;;;;5036524;28;20463;-68
2022/11/01 01:07:06;;;;;;;124.03;62.28;;;9.10;99.90;;;;;;5036637;28;20041;-68
2022/11/01 01:09:32;;;;;;;119.03;61.25;;;9.00;99.90;;;;;;5036509;28;20356;-68
2022/11/01 01:11:58;;;;;;;117.95;58.00;;;8.90;99.90;;;;;;5035790;28;20021;-68
2022/11/01 01:14:24;;;;;;;122.13;60.83;;;8.80;99.90;;;;;;5032186;28;20475;-68
2022/11/01 01:16:50;;;;;;;122.20;57.42;;;8.80;99.90;;;;;;5036626;28;20205;-68
2022/11/01 01:19:16;;;;;;;117.78;55.78;;;8.80;99.90;;;;;;5036414;28;20079;-68
2022/11/01 01:21:42;;;;;;;101.43;54.00;;;8.90;99.90;;;;;;5036253;28;20036;-68
2022/11/01 01:24:08;;;;;;;82.68;46.30;;;8.80;99.90;;;;;;5036161;28;20079;-68
2022/11/01 01:26:34;;;;;;;86.90;45.05;;;8.80;99.90;;;;;;5018622;28;20029;-68
2022/11/01 01:29:00;;;;;;;87.60;45.78;;;8.80;99.90;;;;;;5036054;28;20075;-68
2022/11/01 01:31:26;;;;;;;80.40;44.30;;;8.70;99.90;;;;;;5036228;28;20104;-68
2022/11/01 01:33:52;;;;;;;83.88;45.78;;;8.60;99.90;;;;;;5036038;28;20030;-68
2022/11/01 01:36:18;;;;;;;91.35;46.55;;;8.60;99.90;;;;;;5035947;28;20034;-68
2022/11/01 01:38:44;;;;;;;88.50;46.22;;;8.50;99.90;;;;;;5036063;28;20076;-68
2022/11/01 01:43:54;;;;;;;100.32;50.08;;;8.40;99.90;;;;;;5035891;28;20104;-68
2022/11/01 01:46:20;;;;;;;120.65;58.60;;;8.40;99.90;;;;;;5035876;28;20113;-68
2022/11/01 01:48:50;;;;;;;123.05;59.42;;;8.30;99.90;;;;;;5035077;28;20075;-68
2022/11/01 01:51:21;;;;;;;125.03;62.85;;;8.20;99.90;;;;;;5035735;28;20033;-68
2022/11/01 01:53:50;;;;;;;124.22;63.42;;;8.20;99.90;;;;;;5035646;28;20029;-68
2022/11/01 01:56:34;;;;;;;131.68;61.17;;;8.20;99.90;;;;;;5035688;28;20029;-68
2022/11/01 01:59:07;;;;;;;105.90;55.65;;;8.20;99.90;;;;;;5035522;28;20441;-68
2022/11/01 02:01:36;;;;;;;92.05;48.13;;;8.20;99.90;;;;;;5042768;28;20555;-68
2022/11/01 02:04:05;;;;;;;92.70;45.50;;;8.20;99.90;;;;;;5055149;28;20033;-68
2022/11/01 02:06:32;;;;;;;103.32;53.55;;;8.20;99.90;;;;;;5055478;28;20449;-68
2022/11/01 02:09:01;;;;;;;106.32;52.50;;;8.20;99.90;;;;;;5055413;28;20032;-68
2022/11/01 02:11:27;;;;;;;190.82;83.95;;;8.10;99.90;;;;;;5055157;28;20100;-68
2022/11/01 02:13:53;;;;;;;162.75;73.93;;;8.10;99.90;;;;;;5050300;28;20108;-68
2022/11/01 02:16:31;;;;;;;128.20;63.67;;;8.10;99.90;;;;;;5055210;28;20108;-68
2022/11/01 02:19:30;;;;;;;106.30;52.78;;;8.10;99.90;;;;;;5055222;28;20033;-68
2022/11/01 02:22:21;;;;;;;98.38;50.85;;;8.00;99.90;;;;;;5055222;28;20378;-68
2022/11/01 02:24:59;;;;;;;119.60;55.25;;;8.00;99.90;;;;;;5054915;28;20036;-68
2022/11/01 02:27:50;;;;;;;130.30;58.08;;;8.10;99.90;;;;;;5055105;28;20021;-68
2022/11/01 02:30:17;;;;;;;135.13;59.05;;;8.20;99.90;;;;;;5054867;28;20033;-68
2022/11/01 02:33:04;;;;;;;117.38;57.85;;;8.20;99.90;;;;;;5054879;28;20032;-68
2022/11/01 02:35:29;;;;;;;136.23;62.05;;;8.30;99.90;;;;;;5054844;28;20056;-68
2022/11/01 02:38:34;;;;;;;124.03;57.10;;;8.20;99.90;;;;;;5048586;28;20064;-68
2022/11/01 02:41:03;;;;;;;108.70;50.83;;;8.30;99.90;;;;;;5034730;28;20052;-68
2022/11/01 02:43:51;;;;;;;98.20;48.78;;;8.20;99.90;;;;;;5034955;28;20021;-68
2022/11/01 02:49:05;;;;;;;120.35;54.28;;;8.30;99.90;;;;;;5034740;28;20055;-68
2022/11/01 02:51:33;;;;;;;139.48;63.03;;;8.20;99.90;;;;;;5034732;28;20057;-68
2022/11/01 02:54:04;;;;;;;125.65;57.10;;;8.20;99.90;;;;;;5034700;28;20040;-68
2022/11/01 02:56:30;;;;;;;;;;;8.20;99.90;;;;;;5035223;28;20116;-68
2022/11/01 02:58:57;;;;;;;105.55;48.60;;;8.10;99.90;;;;;;5026577;28;19964;-68
2022/11/01 03:01:26;;;;;;;104.10;49.35;;;8.20;99.90;;;;;;5040574;28;20076;-68
2022/11/01 03:03:55;;;;;;;117.30;53.80;;;8.20;99.90;;;;;;5054463;28;20068;-68
2022/11/01 03:06:35;;;;;;;111.47;54.35;;;8.20;99.90;;;;;;5036589;28;20033;-68
2022/11/01 03:09:10;;;;;;;117.77;56.03;;;8.20;99.90;;;;;;5054389;28;20033;-68
2022/11/01 03:11:58;;;;;;;122.97;53.95;;;8.20;99.90;;;;;;5036416;28;20497;-68
2022/11/01 03:14:48;;;;;;;99.97;48.95;;;8.20;99.90;;;;;;5014813;28;20489;-68
2022/11/01 03:17:27;;;;;;;98.28;49.80;;;8.20;99.90;;;;;;5014476;28;20029;-68
2022/11/01 03:20:14;;;;;;;97.32;47.65;;;8.40;99.90;;;;;;4997164;28;20038;-68
2022/11/01 03:22:47;;;;;;;89.82;45.28;;;8.40;99.90;;;;;;5014618;28;20113;-68
2022/11/01 03:25:38;;;;;;;89.47;43.55;;;8.50;99.90;;;;;;5014660;28;20022;-68
2022/11/01 03:28:45;;;;;;;93.55;43.80;;;8.50;99.90;;;;;;5007640;28;20033;-68
2022/11/01 03:31:14;;;;;;;77.80;42.08;;;8.70;99.90;;;;;;5012944;28;20034;-68
2022/11/01 03:33:51;;;;;;;84.00;42.00;;;8.60;99.90;;;;;;5014428;28;20034;-68
2022/11/01 03:36:19;;;;;;;83.40;42.65;;;8.60;99.90;;;;;;5014505;28;20034;-68
2022/11/01 03:38:55;;;;;;;95.18;45.83;;;8.60;99.90;;;;;;5027342;28;20525;-68
2022/11/01 03:41:22;;;;;;;101.43;46.88;;;8.30;99.90;;;;;;5034113;28;20048;-68
2022/11/01 03:43:49;;;;;;;95.13;46.72;;;8.30;99.90;;;;;;5033824;28;20391;-68
2022/11/01 03:46:15;;;;;;;103.72;47.47;;;8.20;99.90;;;;;;5034039;28;20034;-68
2022/11/01 03:48:41;;;;;;;103.00;47.13;;;8.10;99.90;;;;;;5034028;28;20033;-68
2022/11/01 03:51:07;;;;;;;112.15;49.05;;;8.10;99.90;;;;;;5034146;28;20464;-68
2022/11/01 03:53:33;;;;;;;113.90;50.60;;;8.10;99.90;;;;;;5033967;28;20029;-68
2022/11/01 03:55:59;;;;;;;109.45;50.80;;;8.20;99.90;;;;;;5034009;28;20357;-68
2022/11/01 03:58:40;;;;;;;86.57;43.85;;;8.10;99.90;;;;;;5034087;28;20029;-68
2022/11/01 04:01:10;;;;;;;95.93;44.17;;;8.10;99.90;;;;;;5033857;28;20320;-68
2022/11/01 04:03:37;;;;;;;76.03;40.92;;;8.20;99.90;;;;;;5033843;28;20163;-68
2022/11/01 04:06:04;;;;;;;92.70;43.97;;;8.20;99.90;;;;;;5033857;28;20491;-68
2022/11/01 04:08:30;;;;;;;86.78;42.42;;;8.40;99.90;;;;;;5033940;28;20108;-69
2022/11/01 04:10:55;;;;;;;91.30;43.67;;;8.20;99.90;;;;;;5033876;28;20033;-68
2022/11/01 04:13:21;;;;;;;100.57;45.63;;;8.20;99.90;;;;;;5031724;28;20040;-68
2022/11/01 04:21:22;;;;;;;97.50;45.78;;;7.90;99.90;;;;;;5037483;28;20045;-68
2022/11/01 04:23:48;;;;;;;90.43;42.90;;;7.80;99.90;;;;;;5036993;28;20029;-68
2022/11/01 04:26:17;;;;;;;87.25;44.35;;;7.80;99.90;;;;;;5037304;28;20032;-69
2022/11/01 04:28:55;;;;;;;90.15;43.45;;;7.80;99.90;;;;;;5037391;28;20076;-68
2022/11/01 04:31:28;;;;;;;83.32;42.70;;;7.80;99.90;;;;;;5037311;28;20041;-68
2022/11/01 04:33:56;;;;;;;83.40;41.60;;;7.80;99.90;;;;;;5037298;28;20032;-69
2022/11/01 04:36:22;;;;;;;74.22;40.92;;;7.90;99.90;;;;;;5037146;28;20053;-68
2022/11/01 04:38:56;;;;;;;75.05;39.55;;;7.80;99.90;;;;;;5026075;28;20053;-68
2022/11/01 04:41:24;;;;;;;83.65;39.17;;;7.90;99.90;;;;;;5037067;28;20375;-68
2022/11/01 04:43:53;;;;;;;82.35;40.85;;;7.70;99.90;;;;;;5036992;28;20041;-68
2022/11/01 04:46:19;;;;;;;87.72;45.10;;;7.70;99.90;;;;;;5036998;28;20549;-68
2022/11/01 04:48:45;;;;;;;88.22;44.70;;;7.70;99.90;;;;;;5036885;28;20025;-68
2022/11/01 04:51:11;;;;;;;95.85;49.95;;;7.70;99.90;;;;;;5036833;28;20052;-68
2022/11/01 04:53:37;;;;;;;105.07;50.95;;;7.70;99.90;;;;;;5037205;28;20032;-68
2022/11/01 04:56:05;;;;;;;95.25;49.20;;;7.80;99.90;;;;;;5036894;28;20039;-68
2022/11/01 04:58:33;;;;;;;100.15;49.22;;;7.80;99.90;;;;;;5036681;28;20036;-68
2022/11/01 05:01:04;;;;;;;96.30;47.47;;;7.80;99.90;;;;;;5039087;28;20415;-68
2022/11/01 05:03:30;;;;;;;88.30;43.28;;;7.80;99.90;;;;;;5056538;28;20040;-68
2022/11/01 05:05:58;;;;;;;103.43;44.00;;;7.70;99.90;;;;;;5056583;28;20040;-68
2022/11/01 05:08:24;;;;;;;82.43;41.15;;;7.80;99.90;;;;;;5056551;28;20064;-68
2022/11/01 05:10:53;;;;;;;79.13;40.03;;;7.80;99.90;;;;;;5056549;28;20024;-68
2022/11/01 05:13:18;;;;;;;81.47;40.75;;;7.70;99.90;;;;;;5062897;28;20077;-68
2022/11/01 05:15:44;;;;;;;81.63;40.33;;;7.60;99.90;;;;;;5076414;28;20056;-68
2022/11/01 05:18:10;;;;;;;79.60;39.72;;;7.70;99.90;;;;;;5076423;28;20032;-68
2022/11/01 05:20:36;;;;;;;79.57;42.83;;;7.80;99.90;;;;;;5056160;28;20394;-68
2022/11/01 05:23:03;;;;;;;120.63;49.72;;;7.90;99.90;;;;;;5075794;28;20052;-68
2022/11/01 05:25:30;;;;;;;128.35;47.55;;;7.80;99.90;;;;;;5075563;28;20024;-69
2022/11/01 05:28:06;;;;;;;91.68;41.97;;;7.80;99.90;;;;;;5076271;28;20024;-68
2022/11/01 05:30:33;;;;;;;91.22;41.38;;;7.80;99.90;;;;;;5075961;28;20035;-68
2022/11/01 05:33:00;;;;;;;91.72;42.40;;;7.80;99.90;;;;;;5076038;28;20037;-68
2022/11/01 05:35:27;;;;;;;93.28;41.30;;;7.80;99.90;;;;;;5075925;28;20036;-68
2022/11/01 05:37:54;;;;;;;104.72;44.63;;;7.70;99.90;;;;;;5069945;28;20041;-69
2022/11/01 05:40:20;;;;;;;101.15;45.72;;;7.70;99.90;;;;;;5055962;28;20041;-68
2022/11/01 05:42:46;;;;;;;101.82;44.70;;;7.70;99.90;;;;;;5055842;28;20029;-68
2022/11/01 05:45:12;;;;;;;99.60;47.33;;;7.70;99.90;;;;;;5037622;28;20032;-69
2022/11/01 05:47:39;;;;;;;104.82;46.80;;;7.70;99.90;;;;;;5055857;28;20033;-69
2022/11/01 05:50:12;;;;;;;107.78;44.70;;;7.60;99.90;;;;;;5037640;28;20092;-68
2022/11/01 05:52:39;;;;;;;104.32;40.92;;;7.60;99.90;;;;;;5055760;28;20087;-68
2022/11/01 05:55:06;;;;;;;105.35;43.67;;;7.80;99.90;;;;;;5055683;28;20031;-68
2022/11/01 05:57:32;;;;;;;99.78;44.85;;;8.30;99.90;;;;;;5055482;28;20037;-69
2022/11/01 05:59:58;;;;;;;96.35;42.47;;;8.70;99.90;;;;;;5055476;28;20148;-68
2022/11/01 06:02:26;;;;;;;110.43;45.00;;;8.90;99.90;;;;;;5055481;28;20124;-68
2022/11/01 06:04:52;;;;;;;95.25;43.47;;;9.30;99.90;;;;;;5055436;28;20029;-68
2022/11/01 06:07:18;;;;;;;100.90;43.15;;;9.50;99.90;;;;;;5055028;28;20382;-68
2022/11/01 06:09:43;;;;;;;87.90;40.28;;;10.00;99.90;;;;;;5055191;28;20100;-68
2022/11/01 06:12:09;;;;;;;95.70;40.78;;;10.60;99.90;;;;;;5053203;28;20196;-68
2022/11/01 06:14:35;;;;;;;82.40;40.28;;;11.00;99.90;;;;;;5052871;28;20040;-68
2022/11/01 06:17:01;;;;;;;83.60;39.60;;;11.50;99.90;;;;;;5055831;28;20082;-68
2022/11/01 06:19:27;;;;;;;88.43;42.80;;;11.40;99.90;;;;;;5055412;28;20383;-69
2022/11/01 06:21:53;;;;;;;92.63;43.53;;;11.90;99.90;;;;;;5054983;28;20478;-69
2022/11/01 06:24:18;;;;;;;75.75;36.90;;;12.50;99.90;;;;;;5054979;28;20024;-69
2022/11/01 06:26:44;;;;;;;78.13;36.05;;;12.60;99.90;;;;;;5055038;28;20033;-69
2022/11/01 06:29:10;;;;;;;82.38;38.95;;;13.20;99.90;;;;;;5054845;28;20061;-69
2022/11/01 06:31:36;;;;;;;92.70;40.97;;;13.60;97.90;;;;;;5054885;28;20024;-69
2022/11/01 06:34:02;;;;;;;88.57;40.75;;;14.00;96.80;;;;;;5053020;28;20418;-69
2022/11/01 06:36:28;;;;;;;81.85;38.65;;;14.20;95.60;;;;;;5040156;28;20036;-69
2022/11/01 06:38:54;;;;;;;88.32;40.95;;;14.80;95.30;;;;;;5034861;28;20018;-69
2022/11/01 06:41:20;;;;;;;109.55;44.58;;;15.30;93.50;;;;;;5034652;28;20454;-69
2022/11/01 06:43:48;;;;;;;92.05;41.80;;;15.80;91.00;;;;;;5034496;28;20030;-69
2022/11/01 06:46:14;;;;;;;98.32;40.13;;;16.20;89.40;;;;;;5034152;28;20521;-69
2022/11/01 06:48:40;;;;;;;98.57;43.75;;;16.70;86.00;;;;;;5033280;28;20056;-69
2022/11/01 06:51:05;;;;;;;100.50;42.42;;;16.70;86.70;;;;;;5032621;28;20029;-69
2022/11/01 06:53:32;;;;;;;92.50;42.45;;;16.80;86.00;;;;;;5032591;28;20025;-69
2022/11/01 06:55:59;;;;;;;102.68;46.88;;;17.30;81.50;;;;;;5033259;28;20029;-69
2022/11/01 06:58:25;;;;;;;101.32;47.90;;;17.40;82.80;;;;;;5031231;28;20116;-69
2022/11/01 07:00:51;;;;;;;100.47;47.97;;;17.30;81.40;;;;;;5023675;28;20033;-69
2022/11/01 07:03:17;;;;;;;101.15;47.20;;;17.60;78.90;;;;;;5040775;28;20114;-70
2022/11/01 07:05:43;;;;;;;99.15;49.03;;;17.80;79.60;;;;;;5034518;28;20052;-70
2022/11/01 07:08:11;;;;;;;113.78;49.38;;;18.00;78.90;;;;;;5035710;28;20032;-70
2022/11/01 07:10:41;;;;;;;95.32;46.97;;;18.50;76.40;;;;;;5054450;28;20017;-70
2022/11/01 07:13:10;;;;;;;91.05;46.78;;;18.70;75.10;;;;;;5060427;28;20025;-70
2022/11/01 07:15:36;;;;;;;96.28;47.97;;;18.80;72.50;;;;;;5054909;28;20534;-71
2022/11/01 07:18:04;;;;;;;99.22;46.83;;;18.50;75.20;;;;;;5054729;28;20033;-71
2022/11/01 07:20:35;;;;;;;103.93;48.53;;;17.90;74.60;;;;;;5054921;28;20036;-71
2022/11/01 07:23:03;;;;;;;103.57;47.75;;;17.60;77.50;;;;;;5054708;28;20025;-70
2022/11/01 07:25:30;;;;;;;118.72;52.20;;;17.60;78.80;;;;;;5034449;28;20052;-71
2022/11/01 07:27:56;;;;;;;114.75;50.97;;;17.70;78.80;;;;;;5034702;28;20080;-71
2022/11/01 07:30:23;;;;;;;107.45;48.55;;;18.60;76.00;;;;;;5034845;28;20018;-72
2022/11/01 07:32:57;;;;;;;106.43;50.58;;;18.80;75.00;;;;;;5034633;28;20053;-71
2022/11/01 07:35:24;;;;;;;107.20;50.53;;;18.40;75.20;;;;;;5053798;28;20107;-71
2022/11/01 07:37:49;;;;;;;118.25;50.30;;;18.50;75.30;;;;;;5059748;28;20072;-71
2022/11/01 07:40:16;;;;;;;101.65;47.80;;;19.50;73.50;;;;;;5057311;28;20024;-71
2022/11/01 07:42:43;;;;;;;97.43;48.40;;;19.70;70.70;;;;;;5065450;28;20032;-71
2022/11/01 07:45:14;;;;;;;94.20;49.90;;;19.60;70.10;;;;;;5062887;28;20028;-71
2022/11/01 07:47:40;;;;;;;114.45;56.25;;;20.00;69.80;;;;;;5038386;28;20036;-71
2022/11/01 07:50:06;;;;;;;122.68;59.03;;;20.30;68.00;;;;;;5057801;28;20033;-71
2022/11/01 07:52:32;;;;;;;140.07;60.33;;;20.30;68.60;;;;;;5056024;28;20025;-71
2022/11/01 07:54:58;;;;;;;111.38;57.88;;;20.20;68.30;;;;;;5062396;28;20032;-71
2022/11/01 07:57:24;;;;;;;122.63;58.22;;;20.30;67.60;;;;;;5067084;28;20032;-71
2022/11/01 07:59:50;;;;;;;117.80;55.67;;;20.80;68.10;;;;;;5077240;28;20523;-71
2022/11/01 08:02:16;;;;;;;106.80;53.03;;;21.80;65.20;;;;;;5045861;28;20045;-71
2022/11/01 08:04:42;;;;;;;102.78;50.60;;;21.70;62.60;;;;;;5044784;28;20100;-71
2022/11/01 08:07:08;;;;;;;112.30;53.10;;;21.30;62.50;;;;;;5038904;28;20034;-72
2022/11/01 08:09:34;;;;;;;97.07;50.88;;;21.60;63.70;;;;;;5050186;28;20025;-72
2022/11/01 08:12:00;;;;;;;109.28;49.47;;;22.30;60.80;;;;;;5047281;28;20030;-72
2022/11/01 08:14:26;;;;;;;101.70;48.70;;;22.80;58.30;;;;;;5038169;28;20098;-72
2022/11/01 08:16:54;;;;;;;111.68;48.28;;;23.20;57.90;;;;;;5038133;28;20025;-72
2022/11/01 08:19:23;;;;;;;105.13;47.72;;;23.60;56.70;;;;;;5042447;28;20028;-72
2022/11/01 08:21:52;;;;;;;111.88;46.95;;;24.10;56.40;;;;;;5046364;28;20111;-72
2022/11/01 08:24:18;;;;;;;94.35;46.05;;;24.00;55.80;;;;;;5038914;28;20455;-72
2022/11/01 08:26:44;;;;;;;88.63;44.97;;;24.30;55.50;;;;;;5037905;28;20040;-72
2022/11/01 08:29:09;;;;;;;98.03;46.22;;;24.30;54.30;;;;;;5037659;28;20502;-72
2022/11/01 08:31:40;;;;;;;94.40;45.67;;;24.50;54.40;;;;;;5036022;28;20043;-72
2022/11/01 08:34:06;;;;;;;81.10;44.88;;;24.80;52.40;;;;;;5036230;28;20018;-72
2022/11/01 08:36:33;;;;;;;98.03;48.25;;;25.00;52.20;;;;;;5036836;28;20379;-72
2022/11/01 08:39:02;;;;;;;117.68;55.25;;;25.50;52.60;;;;;;5036713;28;20051;-72
2022/11/01 08:41:28;;;;;;;146.93;70.20;;;25.10;51.20;;;;;;5036085;28;20037;-72
2022/11/01 08:43:56;;;;;;;127.85;60.70;;;24.80;50.70;;;;;;5036105;28;20029;-72
2022/11/01 08:46:21;;;;;;;125.68;55.97;;;25.20;50.90;;;;;;5041216;28;20475;-72
2022/11/01 08:48:47;;;;;;;89.20;46.47;;;25.50;51.60;;;;;;5036088;28;20021;-72
2022/11/01 08:51:13;;;;;;;69.05;36.85;;;26.20;49.20;;;;;;5043466;28;20017;-72
2022/11/01 08:53:39;;;;;;;69.57;34.55;;;26.50;48.90;;;;;;5045167;28;20017;-72
2022/11/01 08:56:05;;;;;;;51.47;25.42;;;26.60;48.40;;;;;;5042847;28;20091;-72
2022/11/01 08:58:31;;;;;;;61.13;24.52;;;26.80;46.10;;;;;;5043191;28;20033;-73
2022/11/01 09:00:57;;;;;;;45.80;20.83;;;26.80;45.70;;;;;;5047903;28;20033;-72
2022/11/01 09:03:23;;;;;;;51.15;18.50;;;26.70;45.50;;;;;;5061047;28;20485;-72
2022/11/01 09:05:49;;;;;;;34.17;17.58;;;26.70;44.20;;;;;;5057589;28;20162;-72
2022/11/01 09:08:15;;;;;;;40.90;19.95;;;27.00;44.20;;;;;;5065320;28;20466;-72
2022/11/01 09:10:40;;;;;;;56.47;21.55;;;27.00;43.80;;;;;;5065856;28;20379;-73
2022/11/01 09:13:07;;;;;;;46.72;23.05;;;27.10;44.80;;;;;;5065065;28;20020;-73
2022/11/01 09:15:33;;;;;;;41.20;22.98;;;26.80;44.70;;;;;;5067836;28;20703;-73
2022/11/01 09:18:04;;;;;;;48.30;21.88;;;27.30;45.80;;;;;;5071952;28;20047;-73
2022/11/01 09:20:33;;;;;;;44.92;21.67;;;27.70;44.10;;;;;;5076014;28;20060;-72
2022/11/01 09:22:59;;;;;;;39.92;20.52;;;28.00;43.90;;;;;;5066725;28;20028;-73
2022/11/01 09:25:25;;;;;;;47.20;23.30;;;27.90;42.90;;;;;;5063106;28;20039;-72
2022/11/01 09:27:51;;;;;;;49.47;21.65;;;28.00;43.60;;;;;;5074335;28;20024;-73
2022/11/01 09:30:20;;;;;;;42.67;21.27;;;28.40;42.20;;;;;;5065787;28;20024;-74
2022/11/01 09:32:46;;;;;;;50.50;22.88;;;28.20;41.70;;;;;;5062082;28;20053;-73
2022/11/01 09:35:11;;;;;;;57.50;23.42;;;28.00;42.20;;;;;;5056572;28;20438;-73
2022/11/01 09:37:37;;;;;;;45.20;20.25;;;28.30;42.80;;;;;;5062884;28;20116;-71
2022/11/01 09:40:13;;;;;;;34.85;17.48;;;28.00;42.10;;;;;;5066074;28;20394;-72
2022/11/01 09:42:46;;;;;;;41.10;18.80;;;28.20;42.00;;;;;;5074278;28;20037;-72
2022/11/01 09:45:18;;;;;;;41.30;19.38;;;28.80;40.40;;;;;;5067606;28;20029;-72
2022/11/01 09:47:49;;;;;;;40.22;18.75;;;29.00;42.00;;;;;;5069601;28;20378;-72
2022/11/01 09:50:45;;;;;;;31.77;16.67;;;29.50;40.90;;;;;;5075699;28;20033;-73
2022/11/01 09:53:22;;;;;;;45.92;20.25;;;29.40;39.80;;;;;;5053334;28;20045;-72
2022/11/01 09:56:09;;;;;;;35.10;18.63;;;29.30;41.60;;;;;;5066366;28;20029;-73
2022/11/01 09:59:01;;;;;;;39.72;19.73;;;29.70;41.20;;;;;;5076191;28;20033;-72
2022/11/01 10:02:18;;;;;;;45.92;19.90;;;29.60;39.50;;;;;;5055376;28;20049;-72
2022/11/01 10:05:14;;;;;;;43.92;19.42;;;29.80;40.30;;;;;;5034894;28;20040;-73
2022/11/01 10:07:51;;;;;;;45.78;20.08;;;30.40;40.80;;;;;;5053328;28;20572;-73
2022/11/01 10:10:29;;;;;;;41.78;19.33;;;30.70;39.50;;;;;;5054139;28;20363;-73
2022/11/01 10:13:26;;;;;;;38.67;18.38;;;30.50;40.30;;;;;;5047510;28;20037;-72
2022/11/01 10:15:55;;;;;;;38.45;19.42;;;31.00;40.00;;;;;;5034241;28;20041;-72
2022/11/01 10:18:29;;;;;;;43.20;19.25;;;31.10;39.80;;;;;;5035558;28;20029;-72
2022/11/01 10:21:02;;;;;;;46.67;20.23;;;31.10;39.20;;;;;;5036006;28;20061;-72
2022/11/01 10:23:49;;;;;;;40.50;19.98;;;30.90;38.60;;;;;;5049628;28;20032;-72
2022/11/01 10:26:26;;;;;;;57.30;22.48;;;31.10;39.30;;;;;;5032334;28;20092;-73
2022/11/01 10:29:13;;;;;;;40.00;19.83;;;30.80;38.00;;;;;;5023309;28;20040;-73
2022/11/01 10:31:44;;;;;;;41.22;20.48;;;31.30;38.20;;;;;;5033862;28;20515;-73
2022/11/01 10:34:33;;;;;;;53.58;22.77;;;31.30;38.00;;;;;;5034804;28;20075;-72
2022/11/01 10:37:25;;;;;;;42.85;22.52;;;31.30;37.50;;;;;;5034319;28;20105;-73
2022/11/01 10:40:17;;;;;;;45.35;21.48;;;31.00;37.40;;;;;;5014720;28;20041;-73
2022/11/01 10:42:43;;;;;;;45.40;22.00;;;31.30;38.80;;;;;;5032535;28;20025;-73
2022/11/01 10:45:22;;;;;;;46.20;22.00;;;31.60;36.90;;;;;;5036603;28;20026;-73
2022/11/01 10:47:55;;;;;;;56.47;22.42;;;31.90;36.80;;;;;;5033809;28;20057;-73
2022/11/01 10:50:24;;;;;;;41.40;19.35;;;32.00;37.20;;;;;;5033801;28;20033;-73
2022/11/01 10:53:01;;;;;;;45.58;20.40;;;32.10;37.20;;;;;;5041159;28;20095;-72
2022/11/01 10:55:36;;;;;;;53.60;21.05;;;32.30;35.20;;;;;;5034283;28;20026;-73
2022/11/01 10:58:09;;;;;;;43.72;19.42;;;32.10;35.90;;;;;;5034242;28;20112;-73
2022/11/01 11:00:38;;;;;;;44.90;19.23;;;32.30;34.90;;;;;;5033857;28;20030;-73
2022/11/01 11:03:21;;;;;;;39.75;20.27;;;32.60;34.40;;;;;;5054068;28;20065;-73
2022/11/01 11:05:49;;;;;;;40.95;18.42;;;32.60;34.60;;;;;;5052355;28;20475;-72
2022/11/01 11:08:18;;;;;;;43.80;19.92;;;33.00;34.30;;;;;;5056105;28;20229;-73
2022/11/01 11:10:44;;;;;;;32.85;17.42;;;32.80;33.40;;;;;;5053746;28;20020;-72
2022/11/01 11:13:14;;;;;;;40.80;18.58;;;32.80;34.00;;;;;;5056046;28;20028;-73
2022/11/01 11:15:48;;;;;;;45.60;20.70;;;32.60;33.70;;;;;;5059433;28;20025;-73
2022/11/01 11:18:26;;;;;;;33.40;17.33;;;33.20;34.50;;;;;;5053040;28;20036;-73
2022/11/01 11:21:04;;;;;;;37.08;18.80;;;33.00;34.00;;;;;;5048070;28;20078;-72
2022/11/01 11:23:34;;;;;;;32.33;17.95;;;32.60;34.00;;;;;;5061164;28;20037;-73
2022/11/01 11:26:09;;;;;;;33.65;18.67;;;32.90;32.80;;;;;;5064210;28;20040;-73
2022/11/01 11:28:43;;;;;;;39.75;18.05;;;33.10;33.80;;;;;;5019347;28;20547;-73
2022/11/01 11:31:14;;;;;;;52.70;21.20;;;33.50;32.90;;;;;;5045417;28;20025;-73
2022/11/01 11:33:59;;;;;;;40.17;20.90;;;33.60;31.50;;;;;;5057273;28;20036;-73
2022/11/01 11:36:33;;;;;;;69.30;22.20;;;33.60;32.40;;;;;;5054614;28;20029;-73
2022/11/01 11:39:00;;;;;;;27.63;16.25;;;34.10;31.20;;;;;;5036340;28;20029;-73
2022/11/01 11:41:31;;;;;;;43.55;17.65;;;34.20;30.90;;;;;;5071518;28;20025;-73
2022/11/01 11:43:58;;;;;;;45.83;19.23;;;34.40;30.30;;;;;;5074711;28;20029;-77
2022/11/01 11:46:25;;;;;;;36.88;18.85;;;34.40;30.40;;;;;;5073889;28;20436;-77
2022/11/01 11:48:55;;;;;;;41.28;17.70;;;34.40;29.70;;;;;;5073492;28;20027;-77
2022/11/01 11:51:24;;;;;;;33.97;15.55;;;34.40;30.10;;;;;;5074361;28;20113;-80
2022/11/01 11:54:18;;;;;;;43.63;16.88;;;34.20;29.30;;;;;;5058012;28;20067;-78
2022/11/01 11:56:45;;;;;;;28.23;12.40;;;34.30;28.90;;;;;;5052950;28;20029;-77
2022/11/01 11:59:37;;;;;;;44.90;16.88;;;34.10;27.00;;;;;;5035147;28;20046;-77
2022/11/01 12:02:12;;;;;;;34.10;13.02;;;33.70;29.30;;;;;;5045611;28;20046;-77
2022/11/01 12:04:46;;;;;;;37.08;14.93;;;34.00;27.80;;;;;;5032852;28;20042;-77
2022/11/01 12:07:54;;;;;;;30.13;11.80;;;33.70;27.40;;;;;;5030975;28;20550;-77
2022/11/01 12:10:38;;;;;;;34.47;13.03;;;33.50;26.20;;;;;;5009287;28;20255;-77
2022/11/01 12:13:25;;;;;;;40.05;13.32;;;33.80;28.00;;;;;;5032896;28;20124;-77
2022/11/01 12:16:07;;;;;;;29.35;10.70;;;34.10;26.50;;;;;;5033296;28;20037;-76
2022/11/01 12:18:32;;;;;;;51.60;15.40;;;34.60;27.90;;;;;;5033550;28;20040;-76
2022/11/01 12:20:58;;;;;;;28.27;13.40;;;34.30;26.50;;;;;;5033352;28;20033;-76
2022/11/01 12:23:30;;;;;;;44.75;15.90;;;34.60;26.00;;;;;;5033651;28;20480;-76
2022/11/01 12:25:59;;;;;;;42.15;15.60;;;33.90;26.60;;;;;;5033690;28;20065;-76
2022/11/01 12:28:35;;;;;;;39.65;15.23;;;34.00;27.90;;;;;;5033325;28;20455;-76
2022/11/01 12:31:08;;;;;;;32.55;13.93;;;34.10;27.50;;;;;;5033299;28;20025;-77
2022/11/01 12:33:46;;;;;;;52.75;16.95;;;34.30;26.40;;;;;;5034571;28;20124;-76
2022/11/01 12:36:14;;;;;;;29.33;13.45;;;34.10;27.30;;;;;;5036437;28;20463;-76
2022/11/01 12:38:48;;;;;;;41.17;13.65;;;34.20;26.90;;;;;;5035394;28;20037;-76
2022/11/01 12:41:26;;;;;;;48.65;14.88;;;33.80;26.20;;;;;;5037006;28;20060;-76
2022/11/01 12:44:04;;;;;;;33.25;12.27;;;34.10;26.10;;;;;;5036484;28;20073;-76
2022/11/01 12:46:54;;;;;;;25.10;11.13;;;34.20;26.70;;;;;;5036769;28;20025;-76
2022/11/01 12:49:46;;;;;;;;;;;34.20;25.80;;;;;;5036936;28;20029;-76
2022/11/01 12:52:41;;;;;;;55.38;14.38;;;34.10;24.90;;;;;;5036243;28;19913;-76
2022/11/01 12:55:24;;;;;;;41.78;13.68;;;33.50;25.80;;;;;;5036675;28;20029;-76
2022/11/01 12:57:50;;;;;;;27.48;11.57;;;33.80;26.30;;;;;;5036431;28;20033;-76